createdAt,value
2022-08-22T00:02:33.790Z,1.85
2022-08-22T00:02:53.052Z,0.80
2022-08-22T00:05:44.784Z,1.50
2022-08-22T00:09:04.574Z,1.60
2022-08-22T00:12:17.461Z,2.13
2022-08-22T00:15:31.710Z,1.50
2022-08-22T00:18:49.662Z,1.70
2022-08-22T00:21:57.909Z,1.85
2022-08-22T00:25:14.994Z,1.52
2022-08-22T00:28:30.502Z,1.67
2022-08-22T00:31:35.801Z,1.02
2022-08-22T00:34:40.848Z,3.00
2022-08-22T00:37:46.018Z,2.30
2022-08-22T00:40:59.541Z,1.50
2022-08-22T00:44:28.255Z,2.00
2022-08-22T00:47:46.439Z,1.92
2022-08-22T00:51:03.150Z,2.03
2022-08-22T00:54:09.646Z,1.83
2022-08-22T00:57:32.148Z,1.67
2022-08-22T01:00:42.403Z,2.15
2022-08-22T01:04:02.869Z,2.75
2022-08-22T01:07:15.321Z,1.95
2022-08-22T01:10:39.014Z,1.95
2022-08-22T01:13:56.675Z,1.80
2022-08-22T01:17:16.340Z,1.95
2022-08-22T01:20:59.971Z,2.10
2022-08-22T01:25:05.026Z,2.25
2022-08-22T01:28:24.271Z,2.00
2022-08-22T01:32:12.917Z,2.28
2022-08-22T01:35:44.299Z,2.50
2022-08-22T01:39:24.404Z,2.35
2022-08-22T01:42:42.228Z,2.28
2022-08-22T01:46:06.430Z,2.30
2022-08-22T01:49:15.131Z,2.92
2022-08-22T01:52:30.074Z,2.40
2022-08-22T01:55:37.227Z,2.15
2022-08-22T01:58:45.678Z,2.30
2022-08-22T02:01:55.610Z,2.70
2022-08-22T02:05:03.844Z,2.13
2022-08-22T02:08:20.046Z,2.53
2022-08-22T02:11:44.789Z,2.58
2022-08-22T02:14:55.636Z,2.40
2022-08-22T02:18:14.405Z,2.23
2022-08-22T02:21:22.095Z,2.63
2022-08-22T02:24:29.322Z,2.30
2022-08-22T02:27:35.813Z,2.67
2022-08-22T02:30:50.030Z,2.75
2022-08-22T02:33:56.776Z,2.65
2022-08-22T02:37:05.508Z,2.95
2022-08-22T02:40:14.692Z,2.58
2022-08-22T02:43:21.906Z,3.20
2022-08-22T02:46:29.577Z,2.50
2022-08-22T02:49:43.887Z,2.63
2022-08-22T02:52:55.093Z,3.05
2022-08-22T02:56:01.050Z,2.70
2022-08-22T02:59:14.707Z,2.65
2022-08-22T03:02:29.642Z,3.63
2022-08-22T03:05:51.445Z,2.95
2022-08-22T03:12:13.087Z,3.05
2022-08-22T03:15:20.971Z,2.90
2022-08-22T03:18:26.825Z,2.92
2022-08-22T03:21:33.825Z,3.38
2022-08-22T03:24:40.134Z,2.38
2022-08-22T03:27:49.834Z,3.05
2022-08-22T03:31:00.676Z,2.72
2022-08-22T03:34:22.206Z,3.80
2022-08-22T03:37:32.684Z,2.90
2022-08-22T03:40:46.564Z,2.95
2022-08-22T03:44:03.198Z,3.35
2022-08-22T03:47:21.277Z,3.53
2022-08-22T03:51:11.337Z,3.20
2022-08-22T03:54:44.417Z,3.70
2022-08-22T03:58:28.011Z,3.05
2022-08-22T04:01:47.130Z,3.22
2022-08-22T04:05:18.119Z,3.13
2022-08-22T04:08:58.308Z,3.30
2022-08-22T04:12:15.429Z,2.97
2022-08-22T04:15:52.684Z,3.25
2022-08-22T04:19:23.383Z,4.03
2022-08-22T04:23:03.909Z,3.95
2022-08-22T04:26:12.633Z,3.58
2022-08-22T04:29:19.744Z,3.55
2022-08-22T04:32:25.319Z,3.58
2022-08-22T04:35:33.034Z,3.38
2022-08-22T04:38:39.620Z,3.50
2022-08-22T04:41:48.148Z,3.90
2022-08-22T04:44:53.723Z,3.90
2022-08-22T04:48:00.101Z,3.40
2022-08-22T04:51:06.522Z,3.30
2022-08-22T04:54:20.446Z,4.25
2022-08-22T04:57:28.283Z,4.00
2022-08-22T05:00:39.611Z,3.67
2022-08-22T05:03:46.281Z,3.50
2022-08-22T05:06:53.617Z,3.97
2022-08-22T05:09:59.486Z,3.75
2022-08-22T05:13:16.556Z,3.90
2022-08-22T05:16:21.828Z,3.88
2022-08-22T05:19:32.208Z,4.00
2022-08-22T05:22:39.689Z,4.47
2022-08-22T05:25:42.924Z,4.13
2022-08-22T05:28:51.291Z,3.75
2022-08-22T05:31:58.516Z,4.07
2022-08-22T05:35:03.021Z,3.20
2022-08-22T05:38:10.115Z,3.80
2022-08-22T05:41:18.508Z,3.75
2022-08-22T05:44:23.524Z,3.30
2022-08-22T05:47:35.497Z,4.03
2022-08-22T05:50:42.096Z,3.33
2022-08-22T05:53:48.094Z,8.05
2022-08-22T05:56:53.806Z,3.50
2022-08-22T06:00:02.121Z,2.65
2022-08-22T06:03:17.858Z,2.63
2022-08-22T06:06:20.809Z,2.90
2022-08-22T06:09:35.471Z,3.38
2022-08-22T06:12:43.086Z,4.10
2022-08-22T06:15:50.204Z,2.85
2022-08-22T06:18:53.148Z,2.75
2022-08-22T06:21:56.369Z,2.15
2022-08-22T06:25:05.823Z,2.72
2022-08-22T06:28:12.510Z,2.65
2022-08-22T06:31:18.695Z,2.58
2022-08-22T06:34:25.282Z,2.58
2022-08-22T06:37:32.556Z,3.20
2022-08-22T06:40:36.532Z,2.85
2022-08-22T06:43:41.645Z,2.58
2022-08-22T06:46:46.959Z,2.67
2022-08-22T06:49:51.082Z,3.38
2022-08-22T06:52:57.580Z,3.42
2022-08-22T06:56:02.982Z,3.05
2022-08-22T06:59:08.782Z,3.28
2022-08-22T07:02:21.748Z,3.22
2022-08-22T07:05:29.087Z,3.00
2022-08-22T07:08:38.582Z,2.85
2022-08-22T07:11:43.189Z,2.67
2022-08-22T07:14:49.489Z,3.00
2022-08-22T07:17:58.736Z,2.20
2022-08-22T07:21:04.552Z,2.70
2022-08-22T07:24:07.789Z,2.58
2022-08-22T07:27:18.415Z,2.72
2022-08-22T07:30:28.106Z,2.50
2022-08-22T07:33:39.248Z,3.22
2022-08-22T07:36:44.835Z,3.03
2022-08-22T07:39:51.671Z,2.63
2022-08-22T07:43:02.760Z,2.30
2022-08-22T07:46:14.007Z,2.33
2022-08-22T07:49:21.798Z,2.17
2022-08-22T07:52:25.352Z,2.50
2022-08-22T07:55:28.621Z,2.28
2022-08-22T07:58:34.039Z,1.75
2022-08-22T08:01:36.814Z,2.35
2022-08-22T08:04:40.838Z,1.90
2022-08-22T08:07:45.347Z,1.73
2022-08-22T08:10:48.764Z,1.50
2022-08-22T08:13:54.846Z,1.30
2022-08-22T08:17:02.603Z,1.60
2022-08-22T08:20:08.412Z,1.95
2022-08-22T08:23:11.942Z,1.50
2022-08-22T08:26:17.269Z,1.50
2022-08-22T08:29:21.754Z,1.27
2022-08-22T08:32:27.115Z,1.10
2022-08-22T08:35:42.183Z,1.08
2022-08-22T08:38:48.176Z,0.90
2022-08-22T08:42:23.194Z,1.10
2022-08-22T08:45:37.426Z,1.55
2022-08-22T08:48:59.492Z,0.93
2022-08-22T08:52:26.496Z,0.80
2022-08-22T08:55:38.284Z,0.70
2022-08-22T09:02:42.467Z,0.90
2022-08-22T09:05:56.078Z,0.93
2022-08-22T09:09:21.579Z,0.90
2022-08-22T09:12:59.769Z,1.00
2022-08-22T09:16:20.750Z,1.05
2022-08-22T09:19:51.922Z,0.80
2022-08-22T09:23:31.914Z,1.52
2022-08-22T09:26:42.134Z,1.20
2022-08-22T09:29:54.911Z,1.25
2022-08-22T09:33:00.955Z,1.48
2022-08-22T09:36:12.242Z,1.50
2022-08-22T09:39:17.033Z,1.38
2022-08-22T09:42:23.747Z,1.10
2022-08-22T09:45:38.214Z,1.20
2022-08-22T09:48:49.312Z,1.13
2022-08-22T09:52:04.807Z,1.35
2022-08-22T09:55:15.951Z,1.08
2022-08-22T10:01:26.457Z,1.10
2022-08-22T10:04:56.928Z,1.08
2022-08-22T10:08:30.879Z,1.00
2022-08-22T10:11:38.861Z,0.93
2022-08-22T10:14:51.194Z,1.00
2022-08-22T10:18:04.078Z,1.13
2022-08-22T10:21:12.174Z,0.98
2022-08-22T10:24:25.489Z,1.15
2022-08-22T10:27:38.126Z,1.30
2022-08-22T10:30:49.479Z,1.40
2022-08-22T10:33:59.925Z,1.23
2022-08-22T10:37:10.241Z,1.13
2022-08-22T10:40:18.330Z,1.05
2022-08-22T10:43:28.886Z,1.20
2022-08-22T10:46:37.643Z,1.30
2022-08-22T10:49:47.053Z,1.55
2022-08-22T10:53:19.450Z,1.20
2022-08-22T10:56:38.080Z,1.00
2022-08-22T10:59:45.293Z,1.33
2022-08-22T11:02:54.871Z,1.42
2022-08-22T11:06:03.963Z,1.60
2022-08-22T11:09:16.103Z,1.67
2022-08-22T11:12:26.722Z,1.23
2022-08-22T11:15:56.090Z,1.27
2022-08-22T11:19:15.114Z,1.20
2022-08-22T11:22:30.544Z,1.15
2022-08-22T11:25:45.353Z,1.27
2022-08-22T11:29:13.607Z,1.48
2022-08-22T11:32:20.879Z,1.70
2022-08-22T11:35:25.975Z,1.35
2022-08-22T11:38:36.156Z,1.63
2022-08-22T11:41:42.766Z,1.25
2022-08-22T11:44:51.321Z,1.00
2022-08-22T11:48:00.433Z,2.03
2022-08-22T11:51:13.189Z,1.30
2022-08-22T11:54:19.846Z,1.35
2022-08-22T11:57:31.092Z,1.40
2022-08-22T12:00:40.081Z,1.40
2022-08-22T12:07:10.306Z,1.33
2022-08-22T12:10:15.465Z,1.20
2022-08-22T12:13:34.953Z,1.45
2022-08-22T12:16:44.977Z,1.48
2022-08-22T12:20:15.084Z,1.55
2022-08-22T12:23:43.705Z,1.13
2022-08-22T12:27:02.158Z,1.40
2022-08-22T12:30:16.115Z,1.90
2022-08-22T12:33:43.662Z,1.67
2022-08-22T12:37:09.926Z,1.40
2022-08-22T12:40:27.168Z,1.98
2022-08-22T12:43:39.867Z,1.67
2022-08-22T12:46:56.643Z,1.50
2022-08-22T12:50:17.148Z,1.70
2022-08-22T12:53:39.898Z,1.73
2022-08-22T12:56:49.075Z,2.28
2022-08-22T12:59:54.525Z,1.73
2022-08-22T13:03:04.605Z,1.40
2022-08-22T13:06:48.619Z,1.67
2022-08-22T13:09:55.224Z,1.65
2022-08-22T13:12:59.463Z,1.50
2022-08-22T13:16:04.931Z,1.55
2022-08-22T13:19:13.460Z,1.60
2022-08-22T13:22:24.076Z,1.55
2022-08-22T13:25:29.859Z,1.73
2022-08-22T13:28:34.319Z,1.77
2022-08-22T13:31:39.179Z,1.48
2022-08-22T13:34:45.671Z,2.55
2022-08-22T13:37:52.847Z,1.80
2022-08-22T13:40:57.105Z,2.33
2022-08-22T13:44:13.989Z,1.90
2022-08-22T13:47:23.361Z,1.50
2022-08-22T13:50:28.550Z,1.55
2022-08-22T13:53:49.374Z,1.90
2022-08-22T13:56:57.699Z,1.77
2022-08-22T14:00:11.161Z,1.20
2022-08-22T14:03:16.286Z,1.50
2022-08-22T14:06:35.470Z,1.38
2022-08-22T14:09:51.314Z,1.65
2022-08-22T14:13:21.773Z,1.50
2022-08-22T14:16:27.548Z,1.60
2022-08-22T14:19:39.972Z,1.60
2022-08-22T14:23:03.888Z,1.60
2022-08-22T14:26:08.493Z,1.48
2022-08-22T14:29:16.703Z,1.00
2022-08-22T14:32:37.349Z,1.60
2022-08-22T14:35:52.706Z,1.30
2022-08-22T14:38:58.427Z,1.17
2022-08-22T14:42:10.066Z,1.58
2022-08-22T14:45:16.827Z,1.33
2022-08-22T14:48:31.662Z,1.13
2022-08-22T14:51:34.701Z,1.10
2022-08-22T14:54:37.642Z,1.70
2022-08-22T14:57:48.797Z,1.48
2022-08-22T15:00:52.126Z,1.40
2022-08-22T15:04:03.041Z,1.45
2022-08-22T15:07:06.836Z,1.88
2022-08-22T15:10:21.957Z,1.20
2022-08-22T15:13:29.486Z,1.85
2022-08-22T15:16:36.022Z,1.60
2022-08-22T15:19:41.700Z,1.60
2022-08-22T15:22:47.234Z,1.67
2022-08-22T15:25:58.220Z,1.77
2022-08-22T15:32:09.649Z,1.67
2022-08-22T15:35:29.865Z,1.27
2022-08-22T15:38:36.432Z,1.30
2022-08-22T15:41:41.685Z,1.17
2022-08-22T15:44:47.287Z,1.40
2022-08-22T15:47:52.215Z,1.48
2022-08-22T15:51:00.878Z,1.58
2022-08-22T15:54:16.161Z,1.30
2022-08-22T15:57:29.174Z,1.38
2022-08-22T16:00:36.320Z,1.70
2022-08-22T16:03:56.687Z,1.55
2022-08-22T16:07:01.289Z,1.50
2022-08-22T16:10:08.790Z,1.52
2022-08-22T16:13:15.270Z,1.90
2022-08-22T16:16:56.068Z,1.67
2022-08-22T16:20:31.848Z,2.17
2022-08-22T16:24:18.648Z,1.65
2022-08-22T16:27:22.420Z,2.20
2022-08-22T16:30:34.713Z,1.70
2022-08-22T16:33:40.572Z,1.45
2022-08-22T16:36:46.267Z,1.60
2022-08-22T16:39:50.092Z,1.67
2022-08-22T16:43:13.641Z,1.50
2022-08-22T16:46:27.629Z,1.60
2022-08-22T16:50:04.030Z,1.52
2022-08-22T16:53:10.521Z,1.40
2022-08-22T16:56:24.438Z,1.70
2022-08-22T16:59:41.260Z,2.28
2022-08-22T17:03:00.822Z,1.85
2022-08-22T17:06:17.426Z,1.92
2022-08-22T17:09:34.394Z,1.88
2022-08-22T17:12:49.463Z,1.48
2022-08-22T17:16:06.978Z,1.70
2022-08-22T17:19:23.752Z,1.75
2022-08-22T17:22:33.020Z,1.60
2022-08-22T17:25:40.020Z,1.75
2022-08-22T17:28:52.103Z,3.13
2022-08-22T17:32:01.926Z,1.63
2022-08-22T17:35:17.489Z,3.30
2022-08-22T17:38:28.633Z,2.00
2022-08-22T17:44:41.623Z,1.70
2022-08-22T17:47:47.494Z,2.45
2022-08-22T17:50:54.780Z,2.60
2022-08-22T17:54:01.883Z,1.58
2022-08-22T17:57:06.483Z,1.70
2022-08-22T18:00:16.663Z,1.90
2022-08-22T18:03:24.168Z,1.92
2022-08-22T18:06:29.895Z,2.33
2022-08-22T18:09:37.702Z,1.75
2022-08-22T18:12:44.478Z,1.92
2022-08-22T18:15:51.210Z,1.80
2022-08-22T18:18:57.093Z,1.98
2022-08-22T18:22:04.257Z,1.70
2022-08-22T18:25:25.653Z,1.75
2022-08-22T18:28:32.802Z,2.58
2022-08-22T18:31:44.442Z,2.08
2022-08-22T18:34:49.388Z,2.15
2022-08-22T18:37:58.264Z,1.85
2022-08-22T18:41:08.966Z,4.97
2022-08-22T18:44:12.574Z,2.35
2022-08-22T18:47:17.701Z,2.38
2022-08-22T18:50:29.334Z,2.15
2022-08-22T18:53:36.970Z,2.00
2022-08-22T18:56:51.491Z,2.55
2022-08-22T19:00:02.011Z,2.20
2022-08-22T19:03:23.989Z,2.17
2022-08-22T19:06:49.932Z,2.42
2022-08-22T19:10:13.068Z,2.58
2022-08-22T19:13:37.129Z,2.90
2022-08-22T19:16:57.355Z,3.88
2022-08-22T19:20:21.486Z,2.67
2022-08-22T19:23:45.564Z,4.63
2022-08-22T19:26:51.232Z,2.65
2022-08-22T19:29:59.201Z,3.97
2022-08-22T19:33:03.998Z,3.75
2022-08-22T19:36:10.956Z,4.05
2022-08-22T19:39:51.048Z,3.35
2022-08-22T19:42:57.703Z,3.50
2022-08-22T19:46:05.101Z,4.88
2022-08-22T19:49:23.483Z,3.13
2022-08-22T19:52:33.014Z,3.40
2022-08-22T19:55:51.488Z,6.47
2022-08-22T19:59:06.583Z,4.13
2022-08-22T20:02:23.212Z,3.97
2022-08-22T20:05:35.062Z,4.05
2022-08-22T20:08:48.865Z,3.97
2022-08-22T20:12:13.295Z,4.82
2022-08-22T20:15:21.933Z,6.18
2022-08-22T20:19:06.578Z,4.07
2022-08-22T20:22:14.566Z,5.65
2022-08-22T20:25:42.408Z,4.90
2022-08-22T20:28:46.891Z,5.05
2022-08-22T20:31:54.407Z,8.93
2022-08-22T20:35:03.569Z,5.80
2022-08-22T20:38:08.346Z,5.10
2022-08-22T20:41:20.145Z,3.95
2022-08-22T20:44:25.542Z,4.35
2022-08-22T20:47:36.206Z,3.80
2022-08-22T20:50:45.485Z,3.80
2022-08-22T20:53:52.003Z,3.90
2022-08-22T20:56:57.032Z,4.00
2022-08-22T21:00:06.915Z,3.65
2022-08-22T21:03:12.168Z,4.55
2022-08-22T21:06:18.499Z,5.18
2022-08-22T21:09:39.885Z,4.68
2022-08-22T21:15:46.058Z,5.30
2022-08-22T21:18:50.051Z,4.63
2022-08-22T21:21:54.194Z,5.97
2022-08-22T21:24:59.479Z,5.10
2022-08-22T21:28:02.114Z,3.90
2022-08-22T21:31:11.446Z,4.00
2022-08-22T21:34:15.267Z,4.75
2022-08-22T21:37:25.283Z,5.70
2022-08-22T21:40:31.540Z,6.22
2022-08-22T21:43:36.952Z,5.47
2022-08-22T21:46:39.271Z,4.18
2022-08-22T21:50:01.884Z,3.95
2022-08-22T21:53:10.289Z,4.20
2022-08-22T21:56:16.553Z,5.97
2022-08-22T21:59:21.466Z,4.10
2022-08-22T22:02:36.519Z,4.85
2022-08-22T22:05:39.427Z,4.25
2022-08-22T22:08:43.336Z,5.07
2022-08-22T22:11:45.723Z,4.22
2022-08-22T22:14:51.532Z,3.83
2022-08-22T22:17:54.029Z,5.53
2022-08-22T22:20:57.285Z,4.63
2022-08-22T22:24:01.082Z,4.68
2022-08-22T22:27:04.293Z,4.88
2022-08-22T22:30:07.559Z,3.63
2022-08-22T22:33:10.237Z,4.78
2022-08-22T22:36:16.525Z,4.28
2022-08-22T22:39:20.171Z,3.92
2022-08-22T22:42:22.486Z,4.75
2022-08-22T22:45:25.334Z,4.70
2022-08-22T22:48:27.991Z,5.60
2022-08-22T22:51:30.362Z,4.55
2022-08-22T22:54:34.146Z,3.95
2022-08-22T22:57:41.341Z,5.00
2022-08-22T23:00:45.042Z,5.93
2022-08-22T23:03:48.419Z,3.55
2022-08-22T23:06:50.693Z,3.53
2022-08-22T23:09:55.775Z,4.35
2022-08-22T23:12:59.550Z,8.52
2022-08-22T23:16:06.237Z,5.80
2022-08-22T23:19:09.242Z,6.80
2022-08-22T23:22:11.945Z,5.57
2022-08-22T23:25:15.839Z,4.53
2022-08-22T23:28:18.040Z,4.13
2022-08-22T23:31:30.755Z,3.80
2022-08-22T23:34:34.859Z,3.88
2022-08-22T23:37:37.111Z,3.83
2022-08-22T23:40:40.717Z,3.58
2022-08-22T23:43:45.250Z,4.13
2022-08-22T23:46:47.652Z,3.88
2022-08-22T23:49:49.895Z,3.22
2022-08-22T23:52:52.156Z,4.07
2022-08-22T23:55:55.928Z,3.47
2022-08-22T23:58:59.225Z,4.22
